SBPB/PHB METAR and TAF weather

Enter ICAO airport designator
Station Type Date Time Source
SBPB METAR 2019/04/24 21:45 UTC NOAA

SBPB 242145Z 08006KT 9999 FEW017 28/25 Q1011


Station Type Date Time Source
SBPB Decoded METAR 2019/04/24 21:45 UTC NOAA

Parnaiba Aeroporto , Brazil (SBPB) 02-55S 041-45W
Apr 24, 2019 - 05:45 PM EDT / 2019.04.24 2145 UTC
Wind: from the E (080 degrees) at 7 MPH (6 KT):0
Visibility: greater than 7 mile(s):0
Sky conditions: mostly clear
Temperature: 82 F (28 C)
Dew Point: 77 F (25 C)
Relative Humidity: 83%
Pressure (altimeter): 29.85 in. Hg (1011 hPa)
ob: SBPB 242145Z 08006KT 9999 FEW017 28/25 Q1011
cycle: 22

Station Type Date Time Source
SBPB TAF 2019/04/24 18:06 UTC NOAA

TAF SBPB 241600Z 2418/2518 04007KT 9999 SCT017 FEW025TCU TN25/2405Z T X32/2516Z
BECMG 2420/2422 06010KT 9999 TS FEW017 FEW025CB
BECMG 2503/2505 1000 7KT SCT017
BECMG 2513/2515 05010KT SCT017 FEW025TCU
RMK PEQ

Example: see airport list